createdAt,value
2018-08-10T00:00:08.260Z,86.22
2018-08-10T00:00:34.391Z,86.52
2018-08-10T00:01:00.553Z,87.19
2018-08-10T00:01:26.678Z,87.67
2018-08-10T00:01:52.818Z,87.76
2018-08-10T00:02:18.949Z,87.86
2018-08-10T00:02:45.081Z,87.96
2018-08-10T00:03:11.241Z,87.86
2018-08-10T00:03:37.376Z,87.38
2018-08-10T00:04:03.517Z,87.67
2018-08-10T00:04:29.641Z,88.44
2018-08-10T00:04:55.807Z,87.57
2018-08-10T00:05:21.944Z,87.48
2018-08-10T00:05:48.077Z,87.67
2018-08-10T00:06:14.214Z,87.57
2018-08-10T00:06:40.346Z,87.67
2018-08-10T00:07:06.476Z,88.24
2018-08-10T00:07:32.616Z,88.06
2018-08-10T00:07:58.766Z,88.15
2018-08-10T00:08:24.906Z,88.01
2018-08-10T00:08:51.059Z,87.86
2018-08-10T00:09:17.173Z,88.15
2018-08-10T00:09:43.304Z,88.49
2018-08-10T00:10:09.440Z,88.59
2018-08-10T00:10:35.569Z,88.59
2018-08-10T00:11:01.707Z,88.82
2018-08-10T00:11:27.862Z,89.01
2018-08-10T00:11:54.003Z,88.53
2018-08-10T00:12:20.161Z,88.53
2018-08-10T00:12:46.322Z,87.96
2018-08-10T00:13:12.460Z,88.1
2018-08-10T00:13:38.614Z,87.82
2018-08-10T00:14:04.760Z,87.86
2018-08-10T00:14:30.919Z,87.96
2018-08-10T00:14:57.057Z,87.43
2018-08-10T00:15:23.210Z,87.82
2018-08-10T00:15:49.378Z,87.86
2018-08-10T00:16:15.509Z,87.82
2018-08-10T00:16:41.638Z,87.82
2018-08-10T00:17:07.782Z,87.09
2018-08-10T00:17:33.940Z,87.05
2018-08-10T00:18:00.081Z,86.9
2018-08-10T00:18:26.233Z,87.09
2018-08-10T00:18:52.368Z,86.95
2018-08-10T00:19:48.328Z,86.8
2018-08-10T00:20:14.463Z,86.38
2018-08-10T00:20:40.593Z,86.18
2018-08-10T00:21:06.730Z,86.18
2018-08-10T00:21:32.899Z,86.57
2018-08-10T00:21:59.029Z,86.47
2018-08-10T00:22:25.165Z,85.22
2018-08-10T00:22:51.298Z,85.22
2018-08-10T00:23:17.435Z,86.09
2018-08-10T00:23:43.564Z,85.89
2018-08-10T00:24:09.727Z,86.09
2018-08-10T00:24:35.856Z,85.41
2018-08-10T00:25:02.000Z,85.61
2018-08-10T00:25:28.129Z,85.13
2018-08-10T00:25:54.295Z,85.13
2018-08-10T00:26:20.432Z,84.84
2018-08-10T00:26:46.571Z,84.26
2018-08-10T00:27:12.707Z,85.13
2018-08-10T00:27:38.865Z,84.64
2018-08-10T00:28:04.995Z,84.64
2018-08-10T00:28:31.123Z,84.84
2018-08-10T00:28:57.289Z,85.32
2018-08-10T00:29:23.428Z,85.32
2018-08-10T00:29:49.559Z,84.64
2018-08-10T00:30:15.696Z,85.22
2018-08-10T00:30:41.831Z,85.22
2018-08-10T00:31:07.966Z,85.32
2018-08-10T00:31:34.100Z,84.64
2018-08-10T00:32:00.242Z,85.22
2018-08-10T00:32:26.374Z,84.84
2018-08-10T00:32:52.514Z,84.45
2018-08-10T00:33:18.668Z,84.17
2018-08-10T00:33:44.843Z,83.87
2018-08-10T00:34:10.981Z,84.07
2018-08-10T00:34:37.111Z,84.17
2018-08-10T00:35:03.257Z,83.97
2018-08-10T00:35:29.403Z,83.87
2018-08-10T00:35:55.527Z,84.17
2018-08-10T00:36:21.654Z,83.87
2018-08-10T00:36:47.788Z,83.97
2018-08-10T00:37:13.932Z,83.87
2018-08-10T00:37:40.067Z,83.49
2018-08-10T00:38:06.204Z,83.97
2018-08-10T00:38:32.333Z,83.97
2018-08-10T00:38:58.466Z,84.36
2018-08-10T00:39:24.597Z,84.64
2018-08-10T00:39:50.786Z,84.64
2018-08-10T00:40:16.927Z,84.55
2018-08-10T00:40:43.091Z,84.36
2018-08-10T00:41:09.235Z,84.26
2018-08-10T00:41:35.365Z,83.97
2018-08-10T00:42:01.488Z,83.49
2018-08-10T00:42:27.621Z,83.4
2018-08-10T00:42:53.764Z,83.97
2018-08-10T00:43:19.899Z,84.17
2018-08-10T00:43:46.056Z,84.07
2018-08-10T00:44:12.197Z,84.17
2018-08-10T00:44:38.351Z,84.26
2018-08-10T00:45:04.494Z,83.4
2018-08-10T00:45:30.623Z,83.59
2018-08-10T00:45:56.763Z,82.82
2018-08-10T00:46:22.892Z,82.63
2018-08-10T00:46:49.023Z,82.63
2018-08-10T00:47:15.158Z,82.82
2018-08-10T00:47:41.303Z,83.11
2018-08-10T00:48:07.437Z,83.01
2018-08-10T00:48:33.599Z,83.11
2018-08-10T00:48:59.756Z,82.92
2018-08-10T00:49:25.888Z,82.73
2018-08-10T00:49:52.031Z,83.11
2018-08-10T00:50:18.196Z,83.01
2018-08-10T00:50:44.327Z,82.92
2018-08-10T00:51:10.476Z,83.2
2018-08-10T00:51:36.639Z,83.49
2018-08-10T00:52:02.779Z,83.3
2018-08-10T00:52:28.939Z,82.53
2018-08-10T00:52:55.069Z,82.49
2018-08-10T00:53:21.226Z,82.97
2018-08-10T00:53:47.362Z,83.07
2018-08-10T00:54:13.505Z,82.87
2018-08-10T00:54:39.638Z,82.92
2018-08-10T00:55:05.776Z,82.59
2018-08-10T00:55:31.904Z,82.68
2018-08-10T00:55:58.044Z,82.78
2018-08-10T00:56:24.202Z,82.68
2018-08-10T00:56:50.358Z,82.49
2018-08-10T00:57:16.503Z,81.57
2018-08-10T00:57:42.631Z,81.43
2018-08-10T00:58:08.761Z,81.82
2018-08-10T00:58:34.894Z,81.63
2018-08-10T00:59:01.030Z,81.43
2018-08-10T00:59:27.168Z,81.34
2018-08-10T00:59:53.311Z,81.76
2018-08-10T01:00:19.445Z,81.57
2018-08-10T01:00:45.583Z,81.57
2018-08-10T01:01:11.729Z,81.76
2018-08-10T01:01:37.863Z,81.67
2018-08-10T01:02:03.995Z,81.57
2018-08-10T01:02:30.131Z,81.48
2018-08-10T01:02:56.271Z,81.09
2018-08-10T01:03:22.408Z,81.38
2018-08-10T01:03:48.563Z,81.09
2018-08-10T01:04:14.699Z,81.28
2018-08-10T01:04:40.827Z,81.09
2018-08-10T01:05:06.992Z,81.28
2018-08-10T01:05:33.171Z,81.28
2018-08-10T01:05:59.350Z,81.19
2018-08-10T01:06:25.476Z,81.09
2018-08-10T01:06:51.663Z,81.67
2018-08-10T01:07:17.765Z,81.09
2018-08-10T01:07:43.927Z,80.71
2018-08-10T01:08:10.058Z,80.99
2018-08-10T01:08:36.194Z,80.8
2018-08-10T01:09:02.328Z,80.57
2018-08-10T01:09:28.467Z,80.76
2018-08-10T01:09:54.602Z,81.15
2018-08-10T01:10:20.741Z,80.76
2018-08-10T01:10:46.877Z,80.57
2018-08-10T01:11:13.010Z,80.57
2018-08-10T01:11:39.150Z,80.57
2018-08-10T01:12:05.369Z,81.15
2018-08-10T01:12:31.490Z,81.72
2018-08-10T01:12:57.627Z,81.63
2018-08-10T01:13:23.910Z,81.72
2018-08-10T01:13:49.917Z,80.96
2018-08-10T01:14:16.051Z,81.15
2018-08-10T01:14:42.189Z,81.05
2018-08-10T01:15:08.320Z,81.15
2018-08-10T01:15:34.484Z,81.05
2018-08-10T01:16:00.615Z,81.15
2018-08-10T01:16:26.751Z,80.76
2018-08-10T01:16:52.890Z,80.76
2018-08-10T01:17:19.027Z,80.61
2018-08-10T01:17:45.161Z,80.19
2018-08-10T01:18:11.297Z,80.13
2018-08-10T01:18:37.427Z,80.61
2018-08-10T01:19:03.586Z,80.42
2018-08-10T01:19:29.826Z,80.13
2018-08-10T01:19:55.844Z,80.47
2018-08-10T01:20:21.987Z,80.51
2018-08-10T01:20:48.127Z,80.38
2018-08-10T01:21:14.261Z,79.75
2018-08-10T01:21:40.390Z,80.28
2018-08-10T01:22:06.525Z,80.57
2018-08-10T01:22:32.657Z,80.66
2018-08-10T01:22:58.835Z,80.38
2018-08-10T01:23:24.974Z,80.13
2018-08-10T01:23:51.112Z,80.28
2018-08-10T01:24:17.242Z,80.09
2018-08-10T01:24:43.374Z,80.38
2018-08-10T01:25:09.519Z,80.66
2018-08-10T01:25:35.649Z,80.66
2018-08-10T01:26:01.801Z,80.28
2018-08-10T01:26:27.954Z,80.38
2018-08-10T01:26:54.086Z,80.09
2018-08-10T01:27:20.211Z,79.71
2018-08-10T01:27:46.357Z,79.99
2018-08-10T01:28:12.493Z,80.19
2018-08-10T01:28:38.673Z,80.38
2018-08-10T01:29:04.808Z,80.09
2018-08-10T01:29:30.950Z,80.09
2018-08-10T01:29:57.080Z,80.57
2018-08-10T01:30:23.216Z,80.28
2018-08-10T01:30:49.353Z,80.19
2018-08-10T01:31:15.486Z,79.61
2018-08-10T01:31:41.620Z,80.09
2018-08-10T01:32:07.759Z,80.09
2018-08-10T01:32:33.888Z,80.38
2018-08-10T01:33:00.080Z,80.19
2018-08-10T01:33:26.238Z,80.09
2018-08-10T01:33:52.373Z,80.19
2018-08-10T01:34:18.502Z,80.38
2018-08-10T01:34:44.659Z,79.99
2018-08-10T01:35:10.821Z,79.9
2018-08-10T01:35:36.957Z,79.71
2018-08-10T01:36:03.089Z,79.52
2018-08-10T01:36:29.245Z,79.99
2018-08-10T01:36:55.378Z,79.61
2018-08-10T01:37:21.552Z,79.52
2018-08-10T01:37:47.646Z,79.9
2018-08-10T01:38:13.777Z,80.28
2018-08-10T01:38:39.944Z,80.38
2018-08-10T01:39:06.078Z,79.9
2018-08-10T01:39:32.234Z,79.9
2018-08-10T01:39:58.370Z,79.8
2018-08-10T01:40:24.508Z,79.61
2018-08-10T01:40:50.640Z,79.27
2018-08-10T01:41:16.795Z,79.52
2018-08-10T01:41:42.926Z,79.22
2018-08-10T01:42:09.067Z,79.03
2018-08-10T01:42:35.207Z,79.42
2018-08-10T01:43:01.338Z,79.42
2018-08-10T01:43:27.470Z,79.13
2018-08-10T01:43:53.602Z,79.61
2018-08-10T01:44:19.757Z,79.71
2018-08-10T01:44:45.897Z,79.03
2018-08-10T01:45:12.036Z,79.22
2018-08-10T01:45:38.197Z,78.84
2018-08-10T01:46:04.335Z,79.13
2018-08-10T01:46:30.463Z,79.03
2018-08-10T01:46:56.601Z,79.71
2018-08-10T01:47:22.752Z,79.42
2018-08-10T01:47:48.885Z,79.42
2018-08-10T01:48:15.028Z,79.32
2018-08-10T01:48:41.183Z,79.03
2018-08-10T01:49:07.317Z,79.13
2018-08-10T01:49:33.449Z,79.03
2018-08-10T01:49:59.588Z,79.52
2018-08-10T01:50:25.751Z,79.42
2018-08-10T01:50:51.886Z,79.03
2018-08-10T01:51:18.016Z,79.8
2018-08-10T01:51:44.153Z,79.71
2018-08-10T01:52:10.285Z,79.22
2018-08-10T01:52:36.448Z,79.52
2018-08-10T01:53:02.582Z,79.22
2018-08-10T01:53:28.722Z,79.71
2018-08-10T01:53:54.860Z,79.52
2018-08-10T01:54:20.998Z,79.52
2018-08-10T01:54:47.137Z,79.32
2018-08-10T01:55:13.300Z,79.52
2018-08-10T01:55:39.435Z,79.13
2018-08-10T01:56:05.565Z,79.22
2018-08-10T01:56:31.701Z,79.99
2018-08-10T01:56:57.827Z,79.8
2018-08-10T01:57:23.960Z,79.52
2018-08-10T01:57:50.092Z,79.61
2018-08-10T01:58:16.223Z,79.32
2018-08-10T01:58:42.367Z,79.71
2018-08-10T01:59:08.504Z,79.42
2018-08-10T01:59:34.634Z,79.13
2018-08-10T02:00:00.776Z,79.13
2018-08-10T02:00:26.912Z,79.42
2018-08-10T02:00:53.047Z,79.52
2018-08-10T02:01:19.177Z,79.42
2018-08-10T02:01:45.312Z,78.84
2018-08-10T02:02:11.452Z,79.22
2018-08-10T02:02:37.586Z,79.03
2018-08-10T02:03:03.725Z,79.32
2018-08-10T02:03:29.861Z,79.61
2018-08-10T02:03:55.994Z,79.52
2018-08-10T02:04:22.125Z,79.61
2018-08-10T02:04:48.267Z,79.42
2018-08-10T02:05:14.397Z,79.22
2018-08-10T02:05:40.535Z,79.32
2018-08-10T02:06:06.667Z,79.42
2018-08-10T02:06:32.823Z,79.71
2018-08-10T02:06:58.954Z,79.9
2018-08-10T02:07:25.104Z,79.22
2018-08-10T02:07:51.263Z,79.32
2018-08-10T02:08:17.394Z,79.8
2018-08-10T02:08:43.529Z,79.52
2018-08-10T02:09:09.669Z,79.32
2018-08-10T02:09:35.796Z,79.42
2018-08-10T02:10:01.932Z,79.22
2018-08-10T02:10:28.065Z,79.03
2018-08-10T02:10:54.230Z,79.22
2018-08-10T02:11:20.389Z,78.94
2018-08-10T02:11:46.518Z,79.22
2018-08-10T02:12:12.654Z,79.42
2018-08-10T02:12:38.788Z,79.32
2018-08-10T02:13:04.929Z,79.42
2018-08-10T02:13:31.080Z,79.42
2018-08-10T02:13:57.222Z,79.52
2018-08-10T02:14:23.357Z,79.61
2018-08-10T02:14:49.500Z,79.32
2018-08-10T02:15:15.652Z,79.8
2018-08-10T02:15:41.786Z,79.71
2018-08-10T02:16:07.921Z,81.24
2018-08-10T02:16:34.084Z,81.34
2018-08-10T02:17:00.240Z,81.05
2018-08-10T02:17:26.411Z,80.96
2018-08-10T02:17:52.548Z,81.34
2018-08-10T02:18:18.683Z,81.34
2018-08-10T02:18:44.817Z,81.92
2018-08-10T02:19:10.953Z,81.15
2018-08-10T02:19:37.083Z,81.15
2018-08-10T02:20:03.220Z,81.53
2018-08-10T02:20:29.357Z,80.66
2018-08-10T02:20:55.492Z,81.15
2018-08-10T02:21:21.620Z,81.72
2018-08-10T02:21:47.750Z,81.15
2018-08-10T02:22:13.887Z,81.43
2018-08-10T02:22:40.025Z,81.34
2018-08-10T02:23:06.203Z,81.34
2018-08-10T02:23:32.332Z,81.05
2018-08-10T02:23:58.471Z,81.43
2018-08-10T02:24:24.625Z,81.82
2018-08-10T02:24:50.798Z,81.43
2018-08-10T02:25:16.897Z,81.43
2018-08-10T02:25:43.026Z,81.63
2018-08-10T02:26:09.156Z,81.92
2018-08-10T02:26:35.291Z,81.72
2018-08-10T02:27:01.428Z,81.63
2018-08-10T02:27:27.576Z,81.63
2018-08-10T02:27:53.708Z,81.72
2018-08-10T02:28:19.842Z,81.53
2018-08-10T02:28:45.982Z,82.49
2018-08-10T02:29:12.133Z,81.72
2018-08-10T02:29:38.295Z,81.82
2018-08-10T02:30:04.422Z,81.92
2018-08-10T02:30:30.612Z,80.96
2018-08-10T02:30:56.785Z,80.66
2018-08-10T02:31:22.928Z,80.76
2018-08-10T02:31:49.057Z,80.66
2018-08-10T02:32:15.189Z,80.63
2018-08-10T02:32:41.359Z,80.76
2018-08-10T02:33:07.478Z,80.76
2018-08-10T02:33:33.613Z,81.24
2018-08-10T02:33:59.807Z,80.96
2018-08-10T02:34:26.018Z,81.05
2018-08-10T02:34:52.153Z,80.76
2018-08-10T02:35:18.313Z,80.96
2018-08-10T02:35:44.481Z,81.05
2018-08-10T02:36:10.639Z,80.96
2018-08-10T02:36:36.844Z,80.57
2018-08-10T02:37:02.978Z,80.66
2018-08-10T02:37:29.115Z,80.38
2018-08-10T02:37:55.271Z,80.28
2018-08-10T02:38:21.411Z,80.19
2018-08-10T02:38:47.545Z,80.38
2018-08-10T02:39:13.674Z,80.38
2018-08-10T02:39:39.888Z,80.38
2018-08-10T02:40:05.972Z,80.09
2018-08-10T02:40:32.124Z,80.28
2018-08-10T02:40:58.287Z,80.38
2018-08-10T02:41:24.448Z,80.19
2018-08-10T02:41:50.635Z,79.42
2018-08-10T02:42:16.763Z,79.9
2018-08-10T02:42:42.935Z,79.03
2018-08-10T02:43:09.121Z,79.42
2018-08-10T02:43:35.250Z,79.42
2018-08-10T02:44:01.436Z,79.42
2018-08-10T02:44:27.558Z,79.32
2018-08-10T02:44:53.739Z,79.71
2018-08-10T02:45:19.903Z,78.84
2018-08-10T02:45:46.063Z,78.9
2018-08-10T02:46:12.236Z,78.45
2018-08-10T02:46:38.404Z,78.55
2018-08-10T02:47:04.555Z,78.84
2018-08-10T02:47:30.685Z,78.23
2018-08-10T02:47:56.848Z,77.84
2018-08-10T02:48:22.980Z,77.75
2018-08-10T02:48:49.114Z,77.65
2018-08-10T02:49:15.295Z,78.23
2018-08-10T02:49:41.476Z,78.13
2018-08-10T02:50:07.637Z,77.65
2018-08-10T02:50:33.768Z,77.94
2018-08-10T02:50:59.925Z,78.13
2018-08-10T02:51:26.082Z,77.56
2018-08-10T02:51:52.240Z,77.75
2018-08-10T02:52:18.394Z,77.36
2018-08-10T02:52:44.534Z,77.94
2018-08-10T02:53:10.692Z,77.46
2018-08-10T02:53:36.846Z,77.17
2018-08-10T02:54:02.979Z,77.26
2018-08-10T02:54:29.140Z,77.46
2018-08-10T02:54:55.271Z,76.98
2018-08-10T02:55:21.433Z,76.69
2018-08-10T02:55:47.612Z,76.98
2018-08-10T02:56:13.748Z,77.46
2018-08-10T02:56:39.883Z,77.56
2018-08-10T02:57:06.040Z,77.65
2018-08-10T02:57:32.183Z,77.65
2018-08-10T02:57:58.367Z,77.46
2018-08-10T02:58:24.558Z,77.56
2018-08-10T02:58:50.685Z,77.75
2018-08-10T02:59:16.853Z,78.03
2018-08-10T02:59:43.038Z,77.46
2018-08-10T03:00:09.191Z,76.4
2018-08-10T03:00:35.379Z,77.36
2018-08-10T03:01:01.514Z,77.75
2018-08-10T03:01:27.651Z,77.56
2018-08-10T03:01:53.811Z,77.46
2018-08-10T03:02:20.000Z,77.65
2018-08-10T03:02:46.182Z,77.26
2018-08-10T03:03:12.413Z,77.36
2018-08-10T03:03:38.591Z,77.56
2018-08-10T03:04:04.802Z,78.03
2018-08-10T03:04:30.960Z,77.75
2018-08-10T03:04:57.116Z,78.23
2018-08-10T03:05:23.323Z,78.13
2018-08-10T03:05:49.460Z,77.75
2018-08-10T03:06:15.647Z,77.65
2018-08-10T03:06:41.806Z,77.26
2018-08-10T03:07:07.966Z,77.65
2018-08-10T03:07:34.102Z,77.26
2018-08-10T03:08:00.256Z,77.36
2018-08-10T03:08:26.424Z,77.36
2018-08-10T03:08:52.558Z,77.08
2018-08-10T03:09:18.720Z,77.94
2018-08-10T03:09:44.902Z,77.36
2018-08-10T03:10:11.065Z,77.56
2018-08-10T03:10:37.218Z,77.17
2018-08-10T03:11:03.392Z,77.56
2018-08-10T03:11:29.558Z,77.26
2018-08-10T03:11:55.707Z,77.56
2018-08-10T03:12:21.864Z,77.46
2018-08-10T03:12:47.990Z,77.56
2018-08-10T03:13:14.176Z,77.84
2018-08-10T03:13:40.328Z,77.56
2018-08-10T03:14:06.460Z,77.94
2018-08-10T03:14:32.621Z,77.36
2018-08-10T03:14:58.757Z,77.17
2018-08-10T03:15:24.892Z,77.56
2018-08-10T03:15:51.028Z,77.36
2018-08-10T03:16:17.182Z,77.75
2018-08-10T03:16:43.319Z,77.56
2018-08-10T03:17:09.454Z,77.56
2018-08-10T03:17:35.649Z,77.56
2018-08-10T03:18:01.810Z,77.75
2018-08-10T03:18:27.958Z,77.36
2018-08-10T03:18:54.093Z,77.17
2018-08-10T03:19:20.228Z,77.17
2018-08-10T03:19:46.386Z,77.56
2018-08-10T03:20:12.521Z,77.84
2018-08-10T03:20:38.702Z,77.84
2018-08-10T03:21:04.841Z,77.94
2018-08-10T03:21:30.974Z,77.56
2018-08-10T03:21:57.134Z,77.36
2018-08-10T03:22:23.300Z,77.84
2018-08-10T03:22:49.429Z,77.84
2018-08-10T03:23:15.562Z,77.56
2018-08-10T03:23:41.705Z,77.36
2018-08-10T03:24:07.878Z,77.65
2018-08-10T03:24:34.016Z,77.56
2018-08-10T03:25:00.154Z,77.56
2018-08-10T03:25:26.329Z,77.94
2018-08-10T03:25:52.466Z,77.36
2018-08-10T03:26:18.646Z,78.03
2018-08-10T03:26:44.804Z,77.75
2018-08-10T03:27:10.980Z,77.36
2018-08-10T03:27:37.120Z,77.17
2018-08-10T03:28:03.268Z,78.03
2018-08-10T03:28:29.411Z,77.94
2018-08-10T03:28:55.548Z,77.36
2018-08-10T03:29:21.677Z,77.36
2018-08-10T03:29:47.819Z,77.36
2018-08-10T03:30:13.974Z,77.26
2018-08-10T03:30:40.134Z,77.46
2018-08-10T03:31:06.280Z,77.26
2018-08-10T03:31:32.422Z,77.65
2018-08-10T03:31:58.642Z,77.84
2018-08-10T03:32:24.800Z,77.36
2018-08-10T03:32:50.960Z,77.56
2018-08-10T03:33:17.091Z,77.94
2018-08-10T03:33:43.236Z,77.8
2018-08-10T03:34:09.393Z,77.9
2018-08-10T03:34:35.530Z,77.46
2018-08-10T03:35:01.657Z,77.46
2018-08-10T03:35:27.793Z,77.94
2018-08-10T03:35:53.926Z,77.84
2018-08-10T03:36:20.060Z,77.75
2018-08-10T03:36:46.199Z,77.65
2018-08-10T03:37:12.331Z,77.36
2018-08-10T03:37:38.467Z,77.26
2018-08-10T03:38:04.624Z,77.46
2018-08-10T03:38:30.773Z,77.46
2018-08-10T03:38:56.916Z,77.46
2018-08-10T03:39:23.046Z,77.36
2018-08-10T03:39:49.191Z,76.98
2018-08-10T03:40:15.319Z,77.08
2018-08-10T03:40:41.464Z,77.61
2018-08-10T03:41:07.610Z,77.23
2018-08-10T03:41:33.750Z,77.51
2018-08-10T03:41:59.880Z,77.51
2018-08-10T03:42:26.022Z,77.8
2018-08-10T03:42:52.179Z,78.09
2018-08-10T03:43:18.310Z,77.71
2018-08-10T03:43:44.444Z,78
2018-08-10T03:44:10.582Z,78.19
2018-08-10T03:44:36.741Z,78.19
2018-08-10T03:45:02.892Z,77.9
2018-08-10T03:45:29.057Z,77.8
2018-08-10T03:45:55.193Z,77.75
2018-08-10T03:46:21.326Z,77.65
2018-08-10T03:46:47.465Z,77.51
2018-08-10T03:47:13.593Z,77.84
2018-08-10T03:47:39.783Z,77.65
2018-08-10T03:48:05.903Z,77.46
2018-08-10T03:48:32.039Z,77.65
2018-08-10T03:48:58.173Z,77.17
2018-08-10T03:49:24.307Z,76.75
2018-08-10T03:49:50.516Z,77.13
2018-08-10T03:50:16.599Z,77.13
2018-08-10T03:50:42.757Z,76.65
2018-08-10T03:51:08.888Z,76.94
2018-08-10T03:51:35.017Z,77.13
2018-08-10T03:52:01.177Z,77.33
2018-08-10T03:52:27.347Z,77.33
2018-08-10T03:52:53.479Z,77.23
2018-08-10T03:53:19.640Z,77.8
2018-08-10T03:53:45.776Z,77.33
2018-08-10T03:54:11.923Z,77.71
2018-08-10T03:54:38.059Z,77.42
2018-08-10T03:55:04.191Z,77.33
2018-08-10T03:55:30.354Z,77.42
2018-08-10T03:55:56.487Z,77.33
2018-08-10T03:56:22.620Z,77.42
2018-08-10T03:56:48.750Z,77.42
2018-08-10T03:57:14.884Z,77.33
2018-08-10T03:57:41.020Z,77.71
2018-08-10T03:58:07.150Z,77.42
2018-08-10T03:58:33.283Z,77.23
2018-08-10T03:58:59.418Z,77.23
2018-08-10T03:59:25.554Z,77.42
2018-08-10T03:59:51.687Z,77.71
2018-08-10T04:00:17.815Z,77.42
2018-08-10T04:00:43.953Z,78
2018-08-10T04:01:10.086Z,77.71
2018-08-10T04:01:36.221Z,77.71
2018-08-10T04:02:02.381Z,77.61
2018-08-10T04:02:28.566Z,77.23
2018-08-10T04:02:54.717Z,77.33
2018-08-10T04:03:20.857Z,77.23
2018-08-10T04:03:47.029Z,77.33
2018-08-10T04:04:13.127Z,77.51
2018-08-10T04:04:39.261Z,77.33
2018-08-10T04:05:05.397Z,77.51
2018-08-10T04:05:31.537Z,77.9
2018-08-10T04:05:57.662Z,78.09
2018-08-10T04:06:23.796Z,77.71
2018-08-10T04:06:49.928Z,78.19
2018-08-10T04:07:16.075Z,78.77
2018-08-10T04:07:42.212Z,78.47
2018-08-10T04:08:08.337Z,78.57
2018-08-10T04:08:34.470Z,78.77
2018-08-10T04:09:00.602Z,78.47
2018-08-10T04:09:26.727Z,78.77
2018-08-10T04:09:52.881Z,78.47
2018-08-10T04:10:19.019Z,78.86
2018-08-10T04:10:45.146Z,78.86
2018-08-10T04:11:11.282Z,78.67
2018-08-10T04:11:37.458Z,78.77
2018-08-10T04:12:03.594Z,78.47
2018-08-10T04:12:29.736Z,78.67
2018-08-10T04:12:55.872Z,78.77
2018-08-10T04:13:22.027Z,78.77
2018-08-10T04:13:48.170Z,78.57
2018-08-10T04:14:14.301Z,78.47
2018-08-10T04:14:40.427Z,78.28
2018-08-10T04:15:06.592Z,78.57
2018-08-10T04:15:32.747Z,78.67
2018-08-10T04:15:58.941Z,78.57
2018-08-10T04:16:25.099Z,78.67
2018-08-10T04:16:51.229Z,78.57
2018-08-10T04:17:17.360Z,79.24
2018-08-10T04:17:43.497Z,79.05
2018-08-10T04:18:09.650Z,79.24
2018-08-10T04:18:35.781Z,79.14
2018-08-10T04:19:01.922Z,79.14
2018-08-10T04:19:28.055Z,79.82
2018-08-10T04:19:54.189Z,79.34
2018-08-10T04:20:20.318Z,79.24
2018-08-10T04:20:46.456Z,79.14
2018-08-10T04:21:12.592Z,79.05
2018-08-10T04:21:38.727Z,78.82
2018-08-10T04:22:04.892Z,79.63
2018-08-10T04:22:31.027Z,79.05
2018-08-10T04:22:57.207Z,79.63
2018-08-10T04:23:23.372Z,79.14
2018-08-10T04:23:49.525Z,79.34
2018-08-10T04:24:15.685Z,79.34
2018-08-10T04:24:41.813Z,79.34
2018-08-10T04:25:07.948Z,79.63
2018-08-10T04:25:34.079Z,79.21
2018-08-10T04:26:00.215Z,79.3
2018-08-10T04:26:26.355Z,79.63
2018-08-10T04:26:52.491Z,79.49
2018-08-10T04:27:18.648Z,79.44
2018-08-10T04:27:44.781Z,79.82
2018-08-10T04:28:10.923Z,79.39
2018-08-10T04:28:37.074Z,79.63
2018-08-10T04:29:03.210Z,79.78
2018-08-10T04:29:29.360Z,80.07
2018-08-10T04:29:55.485Z,79.59
2018-08-10T04:30:21.638Z,79.88
2018-08-10T04:30:47.779Z,79.88
2018-08-10T04:31:13.914Z,79.88
2018-08-10T04:31:40.043Z,79.78
2018-08-10T04:32:06.183Z,79.97
2018-08-10T04:32:32.313Z,79.68
2018-08-10T04:32:58.473Z,80.64
2018-08-10T04:33:24.600Z,80.55
2018-08-10T04:33:50.728Z,80.45
2018-08-10T04:34:16.862Z,80.3
2018-08-10T04:34:43.017Z,80.35
2018-08-10T04:35:09.156Z,79.91
2018-08-10T04:35:35.289Z,80.26
2018-08-10T04:36:01.425Z,80.16
2018-08-10T04:36:27.550Z,79.88
2018-08-10T04:36:53.684Z,80.26
2018-08-10T04:37:19.821Z,80.45
2018-08-10T04:37:45.971Z,80.26
2018-08-10T04:38:12.110Z,80.16
2018-08-10T04:38:38.342Z,80.26
2018-08-10T04:39:04.405Z,80.64
2018-08-10T04:39:30.536Z,80.55
2018-08-10T04:39:56.674Z,80.55
2018-08-10T04:40:22.832Z,80.64
2018-08-10T04:40:48.970Z,80.55
2018-08-10T04:41:15.116Z,81.22
2018-08-10T04:41:41.249Z,81.22
2018-08-10T04:42:07.409Z,81.12
2018-08-10T04:42:33.541Z,81.31
2018-08-10T04:42:59.697Z,81.02
2018-08-10T04:43:25.829Z,81.31
2018-08-10T04:43:51.984Z,81.31
2018-08-10T04:44:18.122Z,81.12
2018-08-10T04:44:44.248Z,81.12
2018-08-10T04:45:10.388Z,81.31
2018-08-10T04:45:36.522Z,80.93
2018-08-10T04:46:02.683Z,81.22
2018-08-10T04:46:28.815Z,81.22
2018-08-10T04:46:54.946Z,81.7
2018-08-10T04:47:21.073Z,81.02
2018-08-10T04:47:47.206Z,81.22
2018-08-10T04:48:13.376Z,81.02
2018-08-10T04:48:39.490Z,80.83
2018-08-10T04:49:05.634Z,81.31
2018-08-10T04:49:31.781Z,81.7
2018-08-10T04:49:57.914Z,81.79
2018-08-10T04:50:24.057Z,81.6
2018-08-10T04:50:50.210Z,81.31
2018-08-10T04:51:16.384Z,81.6
2018-08-10T04:51:42.542Z,81.51
2018-08-10T04:52:08.701Z,81.6
2018-08-10T04:52:34.855Z,81.6
2018-08-10T04:53:00.991Z,81.31
2018-08-10T04:53:27.139Z,81.31
2018-08-10T04:53:53.282Z,81.7
2018-08-10T04:54:19.417Z,81.79
2018-08-10T04:54:45.551Z,81.6
2018-08-10T04:55:11.791Z,81.51
2018-08-10T04:55:37.855Z,81.6
2018-08-10T04:56:04.009Z,81.7
2018-08-10T04:56:30.146Z,81.7
2018-08-10T04:56:56.281Z,81.02
2018-08-10T04:57:22.417Z,81.41
2018-08-10T04:57:48.547Z,81.7
2018-08-10T04:58:14.684Z,81.12
2018-08-10T04:58:40.808Z,80.93
2018-08-10T04:59:06.950Z,81.22
2018-08-10T04:59:33.085Z,81.22
2018-08-10T04:59:59.224Z,80.55
2018-08-10T05:00:25.361Z,80.93
2018-08-10T05:00:51.517Z,80.74
2018-08-10T05:01:17.672Z,80.74
2018-08-10T05:01:43.808Z,80.64
2018-08-10T05:02:09.970Z,80.55
2018-08-10T05:02:36.099Z,80.97
2018-08-10T05:03:02.235Z,80.93
2018-08-10T05:03:28.395Z,80.55
2018-08-10T05:03:54.532Z,80.4
2018-08-10T05:04:20.659Z,80.74
2018-08-10T05:04:46.792Z,80.2
2018-08-10T05:05:12.931Z,80.83
2018-08-10T05:05:39.073Z,80.64
2018-08-10T05:06:05.251Z,80.74
2018-08-10T05:06:31.381Z,80.93
2018-08-10T05:06:57.542Z,80.74
2018-08-10T05:07:23.679Z,80.45
2018-08-10T05:07:49.810Z,80.83
2018-08-10T05:08:15.961Z,80.93
2018-08-10T05:08:42.081Z,80.4
2018-08-10T05:09:08.213Z,81.02
2018-08-10T05:09:34.351Z,80.64
2018-08-10T05:10:00.592Z,81.45
2018-08-10T05:10:26.621Z,80.78
2018-08-10T05:10:52.757Z,80.78
2018-08-10T05:11:18.896Z,80.68
2018-08-10T05:11:45.027Z,80.2
2018-08-10T05:12:11.183Z,80.07
2018-08-10T05:12:37.316Z,80.01
2018-08-10T05:13:03.452Z,80.4
2018-08-10T05:13:29.622Z,80.58
2018-08-10T05:13:55.772Z,80.58
2018-08-10T05:14:21.907Z,80.3
2018-08-10T05:14:48.068Z,80.4
2018-08-10T05:15:14.199Z,80.3
2018-08-10T05:15:40.375Z,80.2
2018-08-10T05:16:06.459Z,80.3
2018-08-10T05:16:32.599Z,79.82
2018-08-10T05:16:58.733Z,80.3
2018-08-10T05:17:24.894Z,80.4
2018-08-10T05:17:51.023Z,80.2
2018-08-10T05:18:17.185Z,80.11
2018-08-10T05:18:43.338Z,80.11
2018-08-10T05:19:09.474Z,80.87
2018-08-10T05:19:35.636Z,80.58
2018-08-10T05:20:01.769Z,80.01
2018-08-10T05:20:27.908Z,79.91
2018-08-10T05:20:54.047Z,80.2
2018-08-10T05:21:20.177Z,80.01
2018-08-10T05:21:46.338Z,80.3
2018-08-10T05:22:12.543Z,80.3
2018-08-10T05:22:38.677Z,80.2
2018-08-10T05:23:04.833Z,80.01
2018-08-10T05:23:30.972Z,80.4
2018-08-10T05:23:57.106Z,80.01
2018-08-10T05:24:23.258Z,79.82
2018-08-10T05:24:49.425Z,80.01
2018-08-10T05:25:15.566Z,79.82
2018-08-10T05:25:41.701Z,79.82
2018-08-10T05:26:07.853Z,79.72
2018-08-10T05:26:33.989Z,80.11
2018-08-10T05:27:00.120Z,79.82
2018-08-10T05:27:26.254Z,80.2
2018-08-10T05:27:52.412Z,79.72
2018-08-10T05:28:18.575Z,79.82
2018-08-10T05:28:44.728Z,79.82
2018-08-10T05:29:10.862Z,79.91
2018-08-10T05:29:36.994Z,80.2
2018-08-10T05:30:03.130Z,80.3
2018-08-10T05:30:29.271Z,80.4
2018-08-10T05:30:55.428Z,80.01
2018-08-10T05:31:21.559Z,79.72
2018-08-10T05:31:47.719Z,79.72
2018-08-10T05:32:13.861Z,79.91
2018-08-10T05:32:39.989Z,79.53
2018-08-10T05:33:06.129Z,79.63
2018-08-10T05:33:32.269Z,79.91
2018-08-10T05:33:58.414Z,79.91
2018-08-10T05:34:24.554Z,80.3
2018-08-10T05:34:50.707Z,80.4
2018-08-10T05:35:16.890Z,79.91
2018-08-10T05:35:43.029Z,79.91
2018-08-10T05:36:09.210Z,79.91
2018-08-10T05:36:35.390Z,79.72
2018-08-10T05:37:01.542Z,80.01
2018-08-10T05:37:27.684Z,79.63
2018-08-10T05:37:53.840Z,79.44
2018-08-10T05:38:19.979Z,80.01